createdAt,value
2019-03-21T00:00:16.193Z,9.21
2019-03-21T00:01:16.133Z,9.19
2019-03-21T00:02:16.121Z,9.22
2019-03-21T00:03:16.109Z,9.13
2019-03-21T00:04:16.113Z,9.23
2019-03-21T00:05:16.081Z,9.25
2019-03-21T00:06:16.085Z,9.23
2019-03-21T00:07:16.082Z,9.14
2019-03-21T00:08:16.054Z,9.13
2019-03-21T00:09:16.066Z,9.22
2019-03-21T00:10:16.029Z,9.11
2019-03-21T00:11:16.017Z,9.10
2019-03-21T00:12:16.002Z,9.08
2019-03-21T00:13:16.013Z,9.10
2019-03-21T00:14:15.985Z,9.08
2019-03-21T00:15:16.000Z,9.10
2019-03-21T00:16:15.957Z,9.06
2019-03-21T00:17:15.953Z,9.11
2019-03-21T00:18:15.937Z,9.02
2019-03-21T00:19:15.953Z,9.04
2019-03-21T00:20:15.913Z,9.04
2019-03-21T00:21:15.917Z,9.11
2019-03-21T00:22:15.909Z,9.10
2019-03-21T00:23:15.878Z,9.10
2019-03-21T00:24:15.874Z,9.10
2019-03-21T00:25:15.877Z,9.08
2019-03-21T00:26:15.854Z,9.00
2019-03-21T00:27:15.834Z,9.04
2019-03-21T00:28:15.845Z,8.95
2019-03-21T00:29:15.813Z,8.94
2019-03-21T00:30:15.805Z,8.97
2019-03-21T00:31:15.801Z,9.10
2019-03-21T00:32:15.794Z,9.13
2019-03-21T00:33:15.765Z,9.08
2019-03-21T00:34:15.761Z,9.10
2019-03-21T00:35:15.757Z,9.11
2019-03-21T00:36:15.769Z,9.06
2019-03-21T00:37:15.725Z,9.04
2019-03-21T00:38:15.713Z,9.10
2019-03-21T00:39:15.698Z,9.06
2019-03-21T00:40:15.688Z,9.10
2019-03-21T00:41:15.686Z,9.10
2019-03-21T00:42:15.670Z,9.08
2019-03-21T00:43:15.683Z,9.10
2019-03-21T00:44:18.462Z,9.11
2019-03-21T00:45:15.633Z,9.10
2019-03-21T00:46:15.630Z,9.04
2019-03-21T00:47:15.609Z,9.13
2019-03-21T00:48:15.605Z,9.28
2019-03-21T00:49:15.617Z,9.29
2019-03-21T00:50:15.578Z,9.16
2019-03-21T00:51:15.566Z,9.18
2019-03-21T00:52:15.553Z,9.16
2019-03-21T00:53:15.538Z,9.16
2019-03-21T00:54:15.529Z,9.19
2019-03-21T00:55:15.538Z,9.13
2019-03-21T00:56:15.537Z,9.22
2019-03-21T00:57:15.494Z,9.23
2019-03-21T00:58:15.503Z,9.26
2019-03-21T00:59:15.473Z,9.13
2019-03-21T01:00:15.479Z,9.06
2019-03-21T01:01:15.484Z,9.08
2019-03-21T01:02:15.443Z,9.06
2019-03-21T01:03:15.428Z,9.08
2019-03-21T01:04:15.418Z,9.08
2019-03-21T01:05:15.407Z,9.08
2019-03-21T01:06:15.401Z,9.08
2019-03-21T01:07:15.401Z,9.11
2019-03-21T01:08:15.373Z,8.92
2019-03-21T01:09:15.362Z,8.97
2019-03-21T01:10:15.346Z,8.89
2019-03-21T01:11:15.347Z,8.94
2019-03-21T01:12:15.330Z,8.91
2019-03-21T01:13:15.329Z,8.94
2019-03-21T01:14:15.305Z,9.02
2019-03-21T01:15:15.293Z,8.89
2019-03-21T01:16:15.281Z,8.92
2019-03-21T01:17:15.307Z,8.88
2019-03-21T01:18:15.269Z,8.94
2019-03-21T01:19:15.245Z,8.95
2019-03-21T01:20:15.238Z,8.85
2019-03-21T01:21:15.254Z,8.95
2019-03-21T01:22:15.214Z,8.85
2019-03-21T01:23:15.213Z,8.89
2019-03-21T01:24:15.193Z,8.89
2019-03-21T01:25:15.189Z,8.85
2019-03-21T01:26:15.197Z,8.88
2019-03-21T01:27:15.174Z,8.88
2019-03-21T01:28:15.169Z,8.87
2019-03-21T01:29:15.136Z,9.02
2019-03-21T01:30:15.125Z,8.97
2019-03-21T01:31:15.121Z,8.99
2019-03-21T01:32:15.102Z,8.94
2019-03-21T01:33:15.086Z,8.94
2019-03-21T01:34:15.106Z,8.92
2019-03-21T01:35:15.069Z,8.99
2019-03-21T01:36:15.077Z,8.99
2019-03-21T01:37:15.045Z,9.00
2019-03-21T01:38:15.045Z,8.94
2019-03-21T01:39:15.023Z,8.89
2019-03-21T01:40:15.009Z,8.97
2019-03-21T01:41:15.001Z,8.88
2019-03-21T01:42:15.003Z,8.87
2019-03-21T01:43:14.974Z,8.85
2019-03-21T01:44:14.966Z,8.85
2019-03-21T01:45:14.973Z,8.74
2019-03-21T01:46:14.937Z,8.81
2019-03-21T01:47:14.945Z,8.74
2019-03-21T01:48:14.934Z,8.74
2019-03-21T01:49:14.909Z,8.71
2019-03-21T01:50:14.922Z,8.69
2019-03-21T01:51:14.892Z,8.69
2019-03-21T01:52:14.874Z,8.63
2019-03-21T01:53:14.898Z,8.67
2019-03-21T01:54:14.850Z,8.56
2019-03-21T01:55:14.852Z,8.64
2019-03-21T01:56:14.830Z,8.53
2019-03-21T01:57:14.822Z,8.56
2019-03-21T01:58:14.806Z,8.48
2019-03-21T01:59:14.830Z,8.56
2019-03-21T02:00:14.786Z,8.55
2019-03-21T02:01:14.778Z,8.52
2019-03-21T02:02:14.761Z,8.42
2019-03-21T02:03:14.794Z,8.46
2019-03-21T02:04:14.758Z,8.46
2019-03-21T02:05:14.730Z,8.38
2019-03-21T02:06:14.721Z,8.33
2019-03-21T02:07:14.726Z,8.36
2019-03-21T02:08:14.690Z,8.30
2019-03-21T02:09:14.688Z,8.28
2019-03-21T02:10:14.669Z,8.24
2019-03-21T02:11:14.662Z,8.30
2019-03-21T02:12:14.654Z,8.24
2019-03-21T02:13:14.651Z,8.26
2019-03-21T02:14:14.632Z,8.18
2019-03-21T02:15:14.613Z,8.16
2019-03-21T02:16:14.602Z,8.15
2019-03-21T02:17:14.590Z,8.10
2019-03-21T02:18:14.579Z,8.03
2019-03-21T02:19:14.586Z,8.13
2019-03-21T02:20:14.582Z,8.03
2019-03-21T02:21:14.584Z,7.95
2019-03-21T02:22:14.539Z,8.00
2019-03-21T02:23:14.527Z,7.91
2019-03-21T02:24:14.534Z,7.87
2019-03-21T02:25:14.502Z,7.87
2019-03-21T02:26:14.525Z,7.87
2019-03-21T02:27:14.482Z,7.82
2019-03-21T02:28:14.474Z,7.75
2019-03-21T02:29:14.458Z,7.85
2019-03-21T02:30:14.504Z,7.77
2019-03-21T02:31:14.435Z,7.66
2019-03-21T02:32:14.430Z,7.66
2019-03-21T02:33:14.415Z,7.61
2019-03-21T02:34:14.414Z,7.58
2019-03-21T02:35:14.399Z,7.53
2019-03-21T02:36:14.397Z,7.47
2019-03-21T02:37:14.430Z,7.47
2019-03-21T02:38:14.364Z,7.56
2019-03-21T02:39:14.350Z,7.63
2019-03-21T02:40:14.349Z,7.66
2019-03-21T02:41:14.336Z,7.70
2019-03-21T02:42:14.325Z,7.66
2019-03-21T02:43:14.308Z,7.72
2019-03-21T02:44:14.285Z,7.73
2019-03-21T02:45:14.383Z,7.75
2019-03-21T02:46:14.356Z,7.76
2019-03-21T02:47:14.259Z,7.76
2019-03-21T02:48:14.251Z,7.85
2019-03-21T02:49:14.238Z,7.80
2019-03-21T02:50:14.224Z,7.70
2019-03-21T02:51:14.219Z,7.67
2019-03-21T02:52:14.219Z,7.61
2019-03-21T02:53:14.204Z,7.66
2019-03-21T02:54:14.187Z,7.66
2019-03-21T02:55:14.199Z,7.67
2019-03-21T02:56:14.174Z,7.69
2019-03-21T02:57:14.141Z,7.66
2019-03-21T02:58:14.145Z,7.66
2019-03-21T02:59:14.127Z,7.61
2019-03-21T03:00:14.134Z,7.58
2019-03-21T03:01:14.105Z,7.53
2019-03-21T03:02:14.118Z,7.50
2019-03-21T03:03:14.104Z,7.60
2019-03-21T03:04:14.085Z,7.53
2019-03-21T03:05:14.062Z,7.53
2019-03-21T03:06:14.038Z,7.51
2019-03-21T03:07:14.038Z,7.54
2019-03-21T03:08:14.030Z,7.45
2019-03-21T03:09:14.010Z,7.48
2019-03-21T03:10:14.007Z,7.50
2019-03-21T03:11:13.986Z,7.48
2019-03-21T03:12:13.979Z,7.45
2019-03-21T03:13:13.958Z,7.45
2019-03-21T03:14:13.955Z,7.36
2019-03-21T03:15:22.541Z,7.38
2019-03-21T03:16:14.936Z,7.38
2019-03-21T03:17:13.922Z,7.39
2019-03-21T03:18:13.914Z,7.29
2019-03-21T03:19:13.899Z,7.32
2019-03-21T03:20:13.899Z,7.32
2019-03-21T03:21:13.876Z,7.32
2019-03-21T03:22:13.874Z,7.20
2019-03-21T03:23:13.852Z,7.20
2019-03-21T03:24:13.840Z,7.17
2019-03-21T03:25:13.825Z,7.18
2019-03-21T03:26:13.814Z,7.17
2019-03-21T03:27:13.820Z,7.23
2019-03-21T03:28:13.800Z,7.15
2019-03-21T03:29:13.789Z,7.05
2019-03-21T03:30:13.774Z,7.13
2019-03-21T03:31:13.766Z,7.11
2019-03-21T03:32:13.914Z,7.10
2019-03-21T03:33:13.850Z,7.06
2019-03-21T03:34:13.944Z,7.05
2019-03-21T03:35:13.717Z,7.03
2019-03-21T03:36:13.700Z,7.05
2019-03-21T03:37:13.692Z,7.00
2019-03-21T03:38:13.704Z,6.99
2019-03-21T03:39:13.692Z,7.05
2019-03-21T03:40:13.657Z,6.96
2019-03-21T03:41:13.648Z,6.99
2019-03-21T03:42:13.633Z,7.03
2019-03-21T03:43:13.629Z,6.97
2019-03-21T03:44:13.614Z,6.93
2019-03-21T03:45:13.655Z,7.00
2019-03-21T03:46:13.593Z,6.95
2019-03-21T03:47:13.583Z,7.00
2019-03-21T03:48:13.574Z,6.99
2019-03-21T03:49:13.558Z,7.06
2019-03-21T03:50:13.546Z,7.06
2019-03-21T03:51:13.567Z,7.00
2019-03-21T03:52:13.523Z,7.06
2019-03-21T03:53:13.516Z,7.00
2019-03-21T03:54:13.513Z,7.10
2019-03-21T03:55:13.489Z,7.10
2019-03-21T03:56:13.498Z,7.05
2019-03-21T03:57:13.469Z,7.10
2019-03-21T03:58:13.453Z,7.05
2019-03-21T03:59:13.441Z,7.14
2019-03-21T04:00:13.436Z,7.14
2019-03-21T04:01:13.424Z,7.17
2019-03-21T04:02:13.423Z,7.20
2019-03-21T04:03:13.417Z,7.15
2019-03-21T04:04:13.401Z,7.18
2019-03-21T04:05:13.378Z,7.23
2019-03-21T04:06:13.364Z,7.17
2019-03-21T04:07:13.357Z,7.20
2019-03-21T04:08:13.347Z,7.14
2019-03-21T04:09:13.342Z,7.17
2019-03-21T04:10:13.341Z,7.29
2019-03-21T04:11:13.342Z,7.31
2019-03-21T04:12:13.298Z,7.25
2019-03-21T04:13:13.316Z,7.31
2019-03-21T04:14:13.297Z,7.39
2019-03-21T04:15:13.280Z,7.35
2019-03-21T04:16:13.252Z,7.35
2019-03-21T04:17:13.245Z,7.35
2019-03-21T04:18:13.233Z,7.42
2019-03-21T04:19:13.230Z,7.42
2019-03-21T04:20:13.213Z,7.54
2019-03-21T04:21:13.217Z,7.48
2019-03-21T04:22:13.196Z,7.48
2019-03-21T04:23:13.177Z,7.48
2019-03-21T04:24:13.180Z,7.57
2019-03-21T04:25:13.154Z,7.53
2019-03-21T04:26:13.146Z,7.48
2019-03-21T04:27:13.149Z,7.45
2019-03-21T04:28:13.117Z,7.43
2019-03-21T04:29:13.112Z,7.43
2019-03-21T04:30:13.102Z,7.40
2019-03-21T04:31:13.105Z,7.54
2019-03-21T04:32:13.083Z,7.54
2019-03-21T04:33:13.065Z,7.54
2019-03-21T04:34:13.055Z,7.56
2019-03-21T04:35:13.053Z,7.43
2019-03-21T04:36:13.043Z,7.45
2019-03-21T04:37:13.024Z,7.50
2019-03-21T04:38:13.033Z,7.40
2019-03-21T04:39:12.997Z,7.45
2019-03-21T04:40:12.980Z,7.45
2019-03-21T04:41:13.074Z,7.45
2019-03-21T04:42:12.964Z,7.39
2019-03-21T04:43:12.952Z,7.43
2019-03-21T04:44:12.956Z,7.45
2019-03-21T04:45:12.924Z,7.36
2019-03-21T04:46:12.921Z,7.33
2019-03-21T04:47:12.920Z,7.33
2019-03-21T04:48:12.888Z,7.42
2019-03-21T04:49:12.880Z,7.42
2019-03-21T04:50:12.871Z,7.43
2019-03-21T04:51:12.861Z,7.43
2019-03-21T04:52:12.848Z,7.50
2019-03-21T04:53:12.857Z,7.48
2019-03-21T04:54:12.833Z,7.60
2019-03-21T04:55:12.816Z,7.58
2019-03-21T04:56:12.811Z,7.60
2019-03-21T04:57:12.828Z,7.57
2019-03-21T04:58:12.788Z,7.70
2019-03-21T04:59:12.786Z,7.58
2019-03-21T05:00:12.777Z,7.58
2019-03-21T05:01:12.755Z,7.61
2019-03-21T05:02:12.748Z,7.60
2019-03-21T05:03:12.720Z,7.61
2019-03-21T05:04:12.720Z,7.63
2019-03-21T05:05:12.708Z,7.56
2019-03-21T05:06:12.741Z,7.57
2019-03-21T05:07:12.692Z,7.58
2019-03-21T05:08:12.672Z,7.58
2019-03-21T05:09:12.659Z,7.60
2019-03-21T05:10:12.652Z,7.58
2019-03-21T05:11:12.636Z,7.57
2019-03-21T05:12:12.644Z,7.57
2019-03-21T05:13:12.612Z,7.54
2019-03-21T05:14:12.596Z,7.56
2019-03-21T05:15:12.592Z,7.61
2019-03-21T05:16:14.944Z,7.47
2019-03-21T05:17:12.564Z,7.51
2019-03-21T05:18:12.572Z,7.56
2019-03-21T05:19:12.565Z,7.50
2019-03-21T05:20:14.412Z,7.56
2019-03-21T05:21:12.519Z,7.56
2019-03-21T05:22:12.507Z,7.56
2019-03-21T05:23:12.503Z,7.53
2019-03-21T05:24:12.483Z,7.54
2019-03-21T05:25:12.487Z,7.57
2019-03-21T05:26:12.470Z,7.58
2019-03-21T05:27:12.451Z,7.58
2019-03-21T05:28:12.439Z,7.58
2019-03-21T05:29:12.435Z,7.51
2019-03-21T05:30:12.419Z,7.51
2019-03-21T05:31:12.419Z,7.54
2019-03-21T05:32:12.395Z,7.54
2019-03-21T05:33:12.383Z,7.60
2019-03-21T05:34:12.371Z,7.57
2019-03-21T05:35:12.367Z,7.57
2019-03-21T05:36:12.379Z,7.58
2019-03-21T05:37:12.339Z,7.60
2019-03-21T05:38:12.327Z,7.61
2019-03-21T05:39:12.315Z,7.67
2019-03-21T05:40:12.327Z,7.58
2019-03-21T05:41:12.299Z,7.57
2019-03-21T05:42:12.304Z,7.57
2019-03-21T05:43:12.308Z,7.63
2019-03-21T05:44:12.266Z,7.57
2019-03-21T05:45:12.255Z,7.61
2019-03-21T05:46:12.239Z,7.66
2019-03-21T05:47:12.244Z,7.58
2019-03-21T05:48:12.227Z,7.58
2019-03-21T05:49:12.204Z,7.56
2019-03-21T05:50:12.192Z,7.58
2019-03-21T05:51:13.467Z,7.58
2019-03-21T05:52:12.181Z,7.60
2019-03-21T05:53:12.164Z,7.63
2019-03-21T05:54:12.167Z,7.60
2019-03-21T05:55:12.139Z,7.66
2019-03-21T05:56:12.124Z,7.63
2019-03-21T05:57:12.113Z,7.69
2019-03-21T05:58:12.104Z,7.66
2019-03-21T05:59:12.096Z,7.61
2019-03-21T06:00:12.091Z,7.67
2019-03-21T06:01:12.076Z,7.67
2019-03-21T06:02:12.056Z,7.72
2019-03-21T06:03:12.063Z,7.70
2019-03-21T06:04:12.039Z,7.69
2019-03-21T06:05:12.040Z,7.76
2019-03-21T06:06:12.016Z,7.75
2019-03-21T06:07:12.007Z,7.72
2019-03-21T06:08:11.996Z,7.70
2019-03-21T06:09:11.981Z,7.77
2019-03-21T06:10:11.972Z,7.69
2019-03-21T06:11:11.967Z,7.75
2019-03-21T06:12:11.943Z,7.76
2019-03-21T06:13:11.944Z,7.76
2019-03-21T06:14:11.927Z,7.67
2019-03-21T06:15:11.936Z,7.70
2019-03-21T06:16:11.903Z,7.79
2019-03-21T06:17:11.891Z,7.79
2019-03-21T06:18:11.882Z,7.77
2019-03-21T06:19:11.875Z,7.85
2019-03-21T06:20:11.856Z,7.83
2019-03-21T06:21:11.859Z,7.85
2019-03-21T06:22:11.831Z,7.85
2019-03-21T06:23:11.835Z,7.87
2019-03-21T06:24:11.815Z,7.87
2019-03-21T06:25:11.800Z,7.90
2019-03-21T06:26:11.791Z,7.83
2019-03-21T06:27:14.837Z,7.91
2019-03-21T06:28:11.763Z,7.90
2019-03-21T06:29:11.754Z,7.91
2019-03-21T06:30:11.744Z,7.85
2019-03-21T06:31:11.735Z,7.95
2019-03-21T06:32:13.013Z,7.85
2019-03-21T06:33:11.706Z,7.98
2019-03-21T06:34:11.700Z,7.97
2019-03-21T06:35:11.687Z,7.93
2019-03-21T06:36:11.676Z,7.83
2019-03-21T06:37:11.671Z,7.95
2019-03-21T06:38:11.661Z,7.94
2019-03-21T06:39:11.655Z,7.95
2019-03-21T06:40:11.630Z,8.06
2019-03-21T06:41:11.618Z,8.08
2019-03-21T06:42:11.609Z,8.03
2019-03-21T06:43:11.604Z,8.03
2019-03-21T06:44:11.585Z,8.06
2019-03-21T06:45:11.594Z,8.18
2019-03-21T06:46:11.567Z,8.12
2019-03-21T06:47:11.550Z,8.15
2019-03-21T06:48:11.542Z,8.18
2019-03-21T06:49:11.539Z,8.19
2019-03-21T06:50:11.518Z,8.28
2019-03-21T06:51:11.519Z,8.31
2019-03-21T06:52:11.495Z,8.33
2019-03-21T06:53:11.483Z,8.34
2019-03-21T06:54:11.477Z,8.34
2019-03-21T06:55:11.469Z,8.42
2019-03-21T06:56:11.481Z,8.37
2019-03-21T06:57:11.479Z,8.41
2019-03-21T06:58:11.443Z,8.41
2019-03-21T06:59:11.415Z,8.41
2019-03-21T07:00:11.406Z,8.49
2019-03-21T07:01:11.409Z,8.38
2019-03-21T07:02:11.384Z,8.45
2019-03-21T07:03:11.377Z,8.51
2019-03-21T07:04:11.375Z,8.42
2019-03-21T07:05:11.351Z,8.46
2019-03-21T07:06:11.337Z,8.51
2019-03-21T07:07:11.332Z,8.44
2019-03-21T07:08:11.314Z,8.37
2019-03-21T07:09:11.309Z,8.52
2019-03-21T07:10:11.311Z,8.46
2019-03-21T07:11:11.278Z,8.56
2019-03-21T07:12:11.274Z,8.45
2019-03-21T07:13:11.259Z,8.48
2019-03-21T07:14:11.249Z,8.45
2019-03-21T07:15:11.239Z,8.49
2019-03-21T07:16:11.242Z,8.48
2019-03-21T07:17:11.212Z,8.48
2019-03-21T07:18:11.198Z,8.46
2019-03-21T07:19:11.197Z,8.41
2019-03-21T07:20:11.183Z,8.53
2019-03-21T07:21:11.178Z,8.41
2019-03-21T07:22:12.373Z,8.44
2019-03-21T07:23:11.151Z,8.55
2019-03-21T07:24:11.135Z,8.56
2019-03-21T07:25:11.122Z,8.61
2019-03-21T07:26:11.110Z,8.64
2019-03-21T07:27:11.110Z,8.64
2019-03-21T07:28:11.098Z,8.64
2019-03-21T07:29:11.093Z,8.73
2019-03-21T07:30:11.067Z,8.78
2019-03-21T07:31:11.454Z,8.74
2019-03-21T07:32:11.078Z,8.79
2019-03-21T07:33:18.083Z,8.87
2019-03-21T07:34:11.024Z,8.84
2019-03-21T07:35:11.010Z,8.88
2019-03-21T07:36:11.002Z,8.84
2019-03-21T07:37:10.991Z,8.84
2019-03-21T07:38:10.991Z,8.84
2019-03-21T07:39:10.985Z,8.92
2019-03-21T07:40:10.959Z,9.02
2019-03-21T07:41:10.947Z,8.89
2019-03-21T07:42:10.935Z,8.92
2019-03-21T07:43:10.927Z,8.94
2019-03-21T07:44:10.910Z,9.11
2019-03-21T07:45:10.942Z,9.10
2019-03-21T07:46:10.891Z,9.21
2019-03-21T07:47:13.158Z,9.14
2019-03-21T07:48:10.899Z,9.25
2019-03-21T07:49:10.851Z,9.19
2019-03-21T07:50:10.860Z,9.19
2019-03-21T07:51:10.859Z,9.23
2019-03-21T07:52:10.823Z,9.23
2019-03-21T07:53:10.815Z,9.25
2019-03-21T07:54:10.801Z,9.23
2019-03-21T07:55:10.787Z,9.34
2019-03-21T07:56:10.828Z,9.28
2019-03-21T07:57:10.796Z,9.36
2019-03-21T07:58:10.759Z,9.37
2019-03-21T07:59:10.744Z,9.39
2019-03-21T08:00:10.731Z,9.41
2019-03-21T08:01:10.723Z,9.43
2019-03-21T08:02:10.711Z,9.47
2019-03-21T08:03:10.711Z,9.48
2019-03-21T08:04:10.711Z,9.54
2019-03-21T08:05:10.673Z,9.56
2019-03-21T08:06:10.661Z,9.50
2019-03-21T08:07:10.650Z,9.61
2019-03-21T08:08:10.657Z,9.59
2019-03-21T08:09:10.632Z,9.61
2019-03-21T08:10:10.619Z,9.64
2019-03-21T08:11:10.623Z,9.61
2019-03-21T08:12:10.607Z,9.73
2019-03-21T08:13:10.590Z,9.79
2019-03-21T08:14:10.594Z,9.79
2019-03-21T08:15:10.569Z,9.91
2019-03-21T08:16:10.551Z,9.92
2019-03-21T08:17:10.554Z,9.98
2019-03-21T08:18:10.531Z,10.07
2019-03-21T08:19:10.523Z,10.07
2019-03-21T08:20:10.547Z,10.12
2019-03-21T08:21:10.498Z,10.19
2019-03-21T08:22:10.486Z,10.13
2019-03-21T08:23:10.478Z,10.19
2019-03-21T08:24:10.458Z,10.17
2019-03-21T08:25:10.490Z,10.19
2019-03-21T08:26:10.454Z,10.16
2019-03-21T08:27:10.430Z,10.26
2019-03-21T08:28:10.429Z,10.35
2019-03-21T08:29:10.405Z,10.40
2019-03-21T08:30:10.434Z,10.42
2019-03-21T08:31:10.382Z,10.56
2019-03-21T08:32:10.392Z,10.56
2019-03-21T08:33:10.419Z,10.56
2019-03-21T08:34:10.356Z,10.67
2019-03-21T08:35:10.340Z,10.59
2019-03-21T08:36:10.351Z,10.71
2019-03-21T08:37:10.334Z,10.75
2019-03-21T08:38:10.329Z,10.76
2019-03-21T08:39:10.295Z,10.71
2019-03-21T08:40:10.283Z,10.74
2019-03-21T08:41:10.271Z,10.78
2019-03-21T08:42:10.257Z,10.93
2019-03-21T08:43:10.265Z,10.99
2019-03-21T08:44:10.258Z,11.08
2019-03-21T08:45:10.225Z,11.11
2019-03-21T08:46:10.214Z,11.11
2019-03-21T08:47:10.201Z,11.04
2019-03-21T08:48:10.192Z,10.99
2019-03-21T08:49:10.197Z,10.97
2019-03-21T08:50:10.169Z,11.07
2019-03-21T08:51:10.176Z,11.05
2019-03-21T08:52:10.178Z,11.14
2019-03-21T08:53:10.141Z,11.22
2019-03-21T08:54:10.148Z,11.23
2019-03-21T08:55:10.110Z,11.35
2019-03-21T08:56:10.106Z,11.33
2019-03-21T08:57:10.087Z,11.47
2019-03-21T08:58:10.074Z,11.59
2019-03-21T08:59:10.080Z,11.51
2019-03-21T09:00:10.078Z,11.55
2019-03-21T09:01:10.052Z,11.47
2019-03-21T09:02:10.033Z,11.35
2019-03-21T09:03:10.026Z,11.33
2019-03-21T09:04:10.006Z,11.36
2019-03-21T09:05:09.998Z,11.45
2019-03-21T09:06:10.018Z,11.44
2019-03-21T09:07:09.998Z,11.48
2019-03-21T09:08:09.962Z,11.50
2019-03-21T09:09:09.966Z,11.51
2019-03-21T09:10:09.945Z,11.48
2019-03-21T09:11:09.945Z,11.45
2019-03-21T09:12:09.950Z,11.55
2019-03-21T09:13:09.910Z,11.62
2019-03-21T09:14:09.906Z,11.60
2019-03-21T09:15:09.900Z,11.70
2019-03-21T09:16:10.999Z,11.77
2019-03-21T09:17:09.857Z,11.94
2019-03-21T09:18:09.866Z,12.04
2019-03-21T09:19:09.840Z,12.13
2019-03-21T09:20:09.826Z,12.29
2019-03-21T09:21:19.220Z,12.28
2019-03-21T09:22:10.803Z,12.36
2019-03-21T09:23:09.807Z,12.27
2019-03-21T09:24:09.781Z,12.15
2019-03-21T09:25:09.769Z,12.10
2019-03-21T09:26:09.758Z,12.21
2019-03-21T09:27:09.750Z,12.12
2019-03-21T09:28:09.781Z,12.22
2019-03-21T09:29:09.735Z,12.24
2019-03-21T09:30:09.725Z,12.29
2019-03-21T09:31:09.705Z,12.40
2019-03-21T09:32:09.735Z,12.32
2019-03-21T09:33:09.681Z,12.42
2019-03-21T09:34:09.681Z,12.46
2019-03-21T09:35:12.286Z,12.40
2019-03-21T09:36:09.645Z,12.39
2019-03-21T09:37:09.642Z,12.36
2019-03-21T09:38:09.682Z,12.55
2019-03-21T09:39:09.610Z,12.67
2019-03-21T09:40:09.602Z,12.80
2019-03-21T09:41:09.593Z,12.82
2019-03-21T09:42:09.582Z,12.85
2019-03-21T09:43:09.566Z,12.82
2019-03-21T09:44:09.581Z,13.03
2019-03-21T09:45:09.545Z,13.20
2019-03-21T09:46:09.546Z,13.50
2019-03-21T09:47:09.526Z,13.47
2019-03-21T09:48:09.509Z,13.49
2019-03-21T09:49:09.501Z,13.52
2019-03-21T09:50:09.506Z,13.38
2019-03-21T09:51:09.479Z,13.13
2019-03-21T09:52:09.465Z,13.15
2019-03-21T09:53:09.451Z,13.20
2019-03-21T09:54:10.079Z,13.27
2019-03-21T09:55:09.429Z,13.27
2019-03-21T09:56:09.437Z,13.27
2019-03-21T09:57:09.412Z,13.37
2019-03-21T09:58:09.402Z,13.38
2019-03-21T09:59:09.389Z,13.30
2019-03-21T10:00:09.391Z,13.30
2019-03-21T10:01:09.383Z,13.37
2019-03-21T10:02:09.358Z,13.30
2019-03-21T10:03:09.340Z,13.37
2019-03-21T10:04:09.339Z,13.31
2019-03-21T10:05:09.317Z,13.33
2019-03-21T10:06:09.301Z,13.28
2019-03-21T10:07:09.334Z,13.33
2019-03-21T10:08:09.285Z,13.38
2019-03-21T10:09:09.270Z,13.44
2019-03-21T10:10:09.262Z,13.52
2019-03-21T10:11:09.254Z,13.63
2019-03-21T10:12:09.239Z,13.68
2019-03-21T10:13:09.249Z,13.75
2019-03-21T10:14:09.215Z,13.67
2019-03-21T10:15:09.205Z,13.62
2019-03-21T10:16:09.206Z,13.60
2019-03-21T10:17:09.181Z,13.60
2019-03-21T10:18:09.166Z,13.54
2019-03-21T10:19:09.160Z,13.25
2019-03-21T10:20:09.158Z,13.33
2019-03-21T10:21:09.137Z,13.38
2019-03-21T10:22:09.155Z,13.38
2019-03-21T10:23:09.122Z,13.50
2019-03-21T10:24:09.106Z,13.54
2019-03-21T10:25:09.090Z,13.71
2019-03-21T10:26:09.082Z,13.93
2019-03-21T10:27:09.082Z,13.93
2019-03-21T10:28:09.070Z,13.95
2019-03-21T10:29:09.042Z,13.81
2019-03-21T10:30:09.034Z,14.04
2019-03-21T10:31:09.030Z,13.99
2019-03-21T10:32:14.278Z,13.90
2019-03-21T10:33:10.014Z,14.05
2019-03-21T10:34:09.012Z,14.03
2019-03-21T10:35:08.978Z,13.97
2019-03-21T10:36:08.967Z,13.99
2019-03-21T10:37:08.958Z,14.03
2019-03-21T10:38:08.953Z,14.22
2019-03-21T10:39:08.979Z,14.36
2019-03-21T10:40:08.918Z,14.55
2019-03-21T10:41:08.905Z,14.60
2019-03-21T10:42:08.894Z,14.54
2019-03-21T10:43:10.547Z,14.72
2019-03-21T10:44:08.911Z,14.81
2019-03-21T10:45:08.883Z,14.73
2019-03-21T10:46:08.869Z,14.54
2019-03-21T10:47:08.842Z,14.53
2019-03-21T10:48:08.827Z,14.44
2019-03-21T10:49:08.818Z,14.35
2019-03-21T10:50:08.805Z,14.11
2019-03-21T10:51:08.810Z,14.08
2019-03-21T10:52:08.794Z,14.04
2019-03-21T10:53:08.770Z,14.05
2019-03-21T10:54:08.758Z,14.20
2019-03-21T10:55:08.761Z,14.25
2019-03-21T10:56:08.735Z,14.32
2019-03-21T10:57:08.742Z,14.28
2019-03-21T10:58:08.738Z,14.54
2019-03-21T10:59:08.737Z,14.62
2019-03-21T11:00:08.694Z,14.68
2019-03-21T11:01:08.682Z,14.94
2019-03-21T11:02:08.669Z,14.92
2019-03-21T11:03:08.677Z,15.00
2019-03-21T11:04:08.650Z,15.02
2019-03-21T11:05:08.645Z,15.07
2019-03-21T11:06:08.621Z,15.00
2019-03-21T11:07:08.617Z,14.84
2019-03-21T11:08:08.601Z,14.79
2019-03-21T11:09:08.603Z,14.82
2019-03-21T11:10:08.589Z,14.84
2019-03-21T11:11:08.581Z,14.66
2019-03-21T11:12:08.558Z,14.48
2019-03-21T11:13:08.553Z,14.53
2019-03-21T11:14:08.538Z,14.82
2019-03-21T11:15:08.521Z,14.79
2019-03-21T11:16:08.514Z,14.79
2019-03-21T11:17:08.540Z,14.89
2019-03-21T11:18:08.486Z,15.15
2019-03-21T11:19:08.486Z,15.11
2019-03-21T11:20:08.465Z,14.85
2019-03-21T11:21:08.453Z,14.73
2019-03-21T11:22:08.465Z,14.63
2019-03-21T11:23:08.453Z,14.82
2019-03-21T11:24:08.419Z,14.79
2019-03-21T11:25:08.438Z,14.82
2019-03-21T11:26:08.394Z,14.68
2019-03-21T11:27:08.390Z,14.65
2019-03-21T11:28:08.377Z,14.81
2019-03-21T11:29:08.411Z,14.82
2019-03-21T11:30:16.076Z,14.68
2019-03-21T11:31:09.344Z,14.70
2019-03-21T11:32:08.333Z,15.09
2019-03-21T11:33:08.319Z,15.15
2019-03-21T11:34:08.312Z,15.14
2019-03-21T11:35:08.341Z,14.97
2019-03-21T11:36:08.285Z,14.99
2019-03-21T11:37:08.274Z,14.97
2019-03-21T11:38:08.266Z,14.94
2019-03-21T11:39:08.266Z,14.86
2019-03-21T11:40:08.241Z,14.79
2019-03-21T11:41:08.258Z,14.82
2019-03-21T11:42:08.227Z,15.00
2019-03-21T11:43:08.204Z,14.99
2019-03-21T11:44:08.205Z,15.15
2019-03-21T11:45:08.202Z,15.22
2019-03-21T11:46:08.181Z,15.28
2019-03-21T11:47:08.173Z,15.29
2019-03-21T11:48:08.161Z,15.27
2019-03-21T11:49:08.136Z,15.40
2019-03-21T11:50:08.136Z,15.37
2019-03-21T11:51:08.169Z,15.25
2019-03-21T11:52:17.820Z,15.22
2019-03-21T11:53:09.093Z,15.27
2019-03-21T11:54:08.090Z,15.27
2019-03-21T11:55:08.197Z,15.29
2019-03-21T11:56:15.121Z,15.18
2019-03-21T11:57:08.050Z,15.07
2019-03-21T11:58:08.044Z,15.10
2019-03-21T11:59:08.027Z,15.17
2019-03-21T12:00:08.017Z,15.44
2019-03-21T12:01:08.000Z,15.59
2019-03-21T12:02:26.300Z,15.59
2019-03-21T12:03:08.977Z,15.62
2019-03-21T12:04:07.974Z,15.79
2019-03-21T12:05:07.964Z,15.68
2019-03-21T12:06:07.950Z,15.65
2019-03-21T12:07:07.938Z,15.55
2019-03-21T12:08:14.986Z,15.79
2019-03-21T12:09:07.910Z,15.65
2019-03-21T12:10:07.903Z,15.44
2019-03-21T12:11:07.890Z,15.29
2019-03-21T12:12:07.904Z,15.25
2019-03-21T12:13:07.874Z,15.31
2019-03-21T12:14:07.857Z,15.42
2019-03-21T12:15:07.856Z,15.35
2019-03-21T12:16:07.839Z,15.39
2019-03-21T12:17:07.825Z,15.33
2019-03-21T12:18:07.831Z,15.29
2019-03-21T12:19:07.811Z,15.25
2019-03-21T12:20:07.795Z,15.29
2019-03-21T12:21:07.783Z,15.37
2019-03-21T12:22:07.786Z,15.49
2019-03-21T12:23:07.762Z,15.58
2019-03-21T12:24:07.771Z,15.46
2019-03-21T12:25:07.735Z,15.52
2019-03-21T12:26:07.723Z,15.59
2019-03-21T12:27:07.715Z,15.61
2019-03-21T12:28:07.731Z,15.80
2019-03-21T12:29:07.707Z,15.83
2019-03-21T12:30:07.695Z,15.79
2019-03-21T12:31:07.670Z,15.88
2019-03-21T12:32:07.660Z,15.82
2019-03-21T12:33:07.649Z,15.94
2019-03-21T12:34:07.631Z,16.00
2019-03-21T12:35:07.651Z,16.00
2019-03-21T12:36:07.639Z,15.95
2019-03-21T12:37:07.615Z,15.98
2019-03-21T12:38:07.591Z,15.92
2019-03-21T12:39:07.590Z,15.90
2019-03-21T12:40:07.571Z,15.80
2019-03-21T12:41:07.578Z,15.82
2019-03-21T12:42:07.551Z,15.83
2019-03-21T12:43:07.550Z,15.90
2019-03-21T12:44:07.522Z,16.08
2019-03-21T12:45:07.511Z,15.95
2019-03-21T12:46:07.509Z,16.04
2019-03-21T12:47:07.507Z,16.15
2019-03-21T12:48:07.487Z,16.00
2019-03-21T12:49:07.466Z,15.95
2019-03-21T12:50:07.458Z,16.01
2019-03-21T12:51:07.443Z,16.32
2019-03-21T12:52:07.447Z,16.56
2019-03-21T12:53:07.427Z,16.71
2019-03-21T12:54:07.450Z,16.35
2019-03-21T12:55:07.404Z,16.28
2019-03-21T12:56:07.391Z,16.15
2019-03-21T12:57:07.391Z,16.05
2019-03-21T12:58:07.391Z,15.88
2019-03-21T12:59:07.357Z,15.86
2019-03-21T13:00:07.342Z,15.86
2019-03-21T13:01:07.352Z,15.83
2019-03-21T13:02:07.323Z,15.83
2019-03-21T13:03:07.318Z,15.95
2019-03-21T13:04:07.313Z,16.02
2019-03-21T13:05:07.287Z,16.02
2019-03-21T13:06:07.299Z,16.10
2019-03-21T13:07:07.327Z,16.10
2019-03-21T13:08:07.259Z,16.31